sensor_id;sensor_type;location;lat;lon;timestamp;temperature;humidity
70820;DHT22;58439;51.046;13.692;2022-10-15T00:23:48;13.60;96.20
70820;DHT22;58439;51.046;13.692;2022-10-15T00:26:19;13.60;96.40
70820;DHT22;58439;51.046;13.692;2022-10-15T00:29:46;13.50;96.50
70820;DHT22;58439;51.046;13.692;2022-10-15T00:32:17;13.50;96.40
70820;DHT22;58439;51.046;13.692;2022-10-15T00:34:45;13.50;96.60
70820;DHT22;58439;51.046;13.692;2022-10-15T00:46:53;13.50;96.70
70820;DHT22;58439;51.046;13.692;2022-10-15T00:50:14;13.50;96.80
70820;DHT22;58439;51.046;13.692;2022-10-15T00:53:01;13.40;96.90
70820;DHT22;58439;51.046;13.692;2022-10-15T00:55:37;13.50;97.20
70820;DHT22;58439;51.046;13.692;2022-10-15T00:58:17;13.40;96.90
70820;DHT22;58439;51.046;13.692;2022-10-15T01:00:54;13.40;97.10
70820;DHT22;58439;51.046;13.692;2022-10-15T01:03:22;13.40;97.40
70820;DHT22;58439;51.046;13.692;2022-10-15T01:16:44;13.40;97.50
70820;DHT22;58439;51.046;13.692;2022-10-15T01:30:56;13.40;97.50
70820;DHT22;58439;51.046;13.692;2022-10-15T01:34:37;13.40;97.90
70820;DHT22;58439;51.046;13.692;2022-10-15T01:39:57;13.30;98.30
70820;DHT22;58439;51.046;13.692;2022-10-15T01:42:43;13.30;98.30
70820;DHT22;58439;51.046;13.692;2022-10-15T01:45:33;13.30;98.50
70820;DHT22;58439;51.046;13.692;2022-10-15T01:48:18;13.30;98.60
70820;DHT22;58439;51.046;13.692;2022-10-15T01:50:51;13.30;98.50
70820;DHT22;58439;51.046;13.692;2022-10-15T01:53:25;13.20;98.80
70820;DHT22;58439;51.046;13.692;2022-10-15T01:55:57;13.20;99.00
70820;DHT22;58439;51.046;13.692;2022-10-15T01:58:29;13.20;99.10
70820;DHT22;58439;51.046;13.692;2022-10-15T02:00:58;13.20;99.30
70820;DHT22;58439;51.046;13.692;2022-10-15T02:03:25;13.20;99.30
70820;DHT22;58439;51.046;13.692;2022-10-15T02:06:18;13.20;99.40
70820;DHT22;58439;51.046;13.692;2022-10-15T02:12:42;13.20;99.40
70820;DHT22;58439;51.046;13.692;2022-10-15T02:18:51;13.20;99.70
70820;DHT22;58439;51.046;13.692;2022-10-15T02:39:43;13.20;99.90
70820;DHT22;58439;51.046;13.692;2022-10-15T02:42:13;13.10;99.90
70820;DHT22;58439;51.046;13.692;2022-10-15T02:44:43;13.10;99.80
70820;DHT22;58439;51.046;13.692;2022-10-15T02:47:11;13.10;99.90
70820;DHT22;58439;51.046;13.692;2022-10-15T02:49:39;13.10;99.90
70820;DHT22;58439;51.046;13.692;2022-10-15T02:52:06;13.10;99.90
70820;DHT22;58439;51.046;13.692;2022-10-15T02:54:34;13.10;99.90
70820;DHT22;58439;51.046;13.692;2022-10-15T02:57:01;13.10;99.90
70820;DHT22;58439;51.046;13.692;2022-10-15T02:59:28;13.10;99.90
70820;DHT22;58439;51.046;13.692;2022-10-15T03:01:56;13.20;99.90
70820;DHT22;58439;51.046;13.692;2022-10-15T03:04:25;13.10;99.90
70820;DHT22;58439;51.046;13.692;2022-10-15T03:06:53;13.10;99.90
70820;DHT22;58439;51.046;13.692;2022-10-15T03:09:20;13.10;99.90
70820;DHT22;58439;51.046;13.692;2022-10-15T03:11:48;13.10;99.90
70820;DHT22;58439;51.046;13.692;2022-10-15T03:14:40;13.10;99.90
70820;DHT22;58439;51.046;13.692;2022-10-15T03:17:07;13.10;99.90
70820;DHT22;58439;51.046;13.692;2022-10-15T03:19:35;13.10;99.90
70820;DHT22;58439;51.046;13.692;2022-10-15T03:22:02;13.10;99.90
70820;DHT22;58439;51.046;13.692;2022-10-15T03:24:40;13.10;99.90
70820;DHT22;58439;51.046;13.692;2022-10-15T03:27:08;13.10;99.90
70820;DHT22;58439;51.046;13.692;2022-10-15T03:29:35;13.10;99.90
70820;DHT22;58439;51.046;13.692;2022-10-15T03:32:05;13.10;99.90
70820;DHT22;58439;51.046;13.692;2022-10-15T03:34:37;13.10;99.90
70820;DHT22;58439;51.046;13.692;2022-10-15T03:37:05;13.10;99.90
70820;DHT22;58439;51.046;13.692;2022-10-15T03:39:34;13.10;99.90
70820;DHT22;58439;51.046;13.692;2022-10-15T03:58:21;13.10;99.90
70820;DHT22;58439;51.046;13.692;2022-10-15T04:16:24;13.00;99.90
70820;DHT22;58439;51.046;13.692;2022-10-15T04:19:43;13.00;99.90
70820;DHT22;58439;51.046;13.692;2022-10-15T04:22:36;13.10;99.90
70820;DHT22;58439;51.046;13.692;2022-10-15T04:25:06;13.10;99.90
70820;DHT22;58439;51.046;13.692;2022-10-15T04:32:26;13.10;99.90
70820;DHT22;58439;51.046;13.692;2022-10-15T04:35:43;13.10;99.90
70820;DHT22;58439;51.046;13.692;2022-10-15T04:38:19;13.10;99.90
70820;DHT22;58439;51.046;13.692;2022-10-15T04:41:00;13.10;99.90
70820;DHT22;58439;51.046;13.692;2022-10-15T04:43:43;13.00;99.90
70820;DHT22;58439;51.046;13.692;2022-10-15T04:46:12;13.00;99.90
70820;DHT22;58439;51.046;13.692;2022-10-15T04:48:40;13.00;99.90
70820;DHT22;58439;51.046;13.692;2022-10-15T04:51:19;13.00;99.90
70820;DHT22;58439;51.046;13.692;2022-10-15T04:54:04;13.00;99.90
70820;DHT22;58439;51.046;13.692;2022-10-15T04:56:33;12.90;99.90
70820;DHT22;58439;51.046;13.692;2022-10-15T04:59:06;12.90;99.90
70820;DHT22;58439;51.046;13.692;2022-10-15T05:01:43;12.90;99.90
70820;DHT22;58439;51.046;13.692;2022-10-15T05:04:14;12.90;99.90
70820;DHT22;58439;51.046;13.692;2022-10-15T05:06:41;12.80;99.90
70820;DHT22;58439;51.046;13.692;2022-10-15T05:09:25;12.80;99.90
70820;DHT22;58439;51.046;13.692;2022-10-15T05:12:21;12.80;99.90
70820;DHT22;58439;51.046;13.692;2022-10-15T05:15:20;12.80;99.90
70820;DHT22;58439;51.046;13.692;2022-10-15T05:17:47;12.80;99.90
70820;DHT22;58439;51.046;13.692;2022-10-15T05:20:17;12.80;99.90
70820;DHT22;58439;51.046;13.692;2022-10-15T05:22:45;12.80;99.90
70820;DHT22;58439;51.046;13.692;2022-10-15T05:25:12;12.80;99.90
70820;DHT22;58439;51.046;13.692;2022-10-15T05:27:41;12.80;99.90
70820;DHT22;58439;51.046;13.692;2022-10-15T05:30:08;12.80;99.90
70820;DHT22;58439;51.046;13.692;2022-10-15T05:32:53;12.80;99.90
70820;DHT22;58439;51.046;13.692;2022-10-15T05:35:21;12.80;99.90
70820;DHT22;58439;51.046;13.692;2022-10-15T05:37:54;12.80;99.90
70820;DHT22;58439;51.046;13.692;2022-10-15T05:40:22;12.80;99.90
70820;DHT22;58439;51.046;13.692;2022-10-15T05:43:18;12.80;99.90
70820;DHT22;58439;51.046;13.692;2022-10-15T05:45:48;12.80;99.90
70820;DHT22;58439;51.046;13.692;2022-10-15T05:48:20;12.80;99.90
70820;DHT22;58439;51.046;13.692;2022-10-15T05:50:47;12.80;99.90
70820;DHT22;58439;51.046;13.692;2022-10-15T05:53:21;12.80;99.90
70820;DHT22;58439;51.046;13.692;2022-10-15T05:55:53;12.80;99.90
70820;DHT22;58439;51.046;13.692;2022-10-15T05:58:28;12.90;99.90
70820;DHT22;58439;51.046;13.692;2022-10-15T06:01:05;12.90;99.90
70820;DHT22;58439;51.046;13.692;2022-10-15T06:07:17;13.00;99.90
70820;DHT22;58439;51.046;13.692;2022-10-15T06:11:04;13.00;99.90
70820;DHT22;58439;51.046;13.692;2022-10-15T06:14:30;13.00;99.90
70820;DHT22;58439;51.046;13.692;2022-10-15T06:22:25;13.00;99.90
70820;DHT22;58439;51.046;13.692;2022-10-15T06:30:28;13.10;99.90
70820;DHT22;58439;51.046;13.692;2022-10-15T06:33:41;13.10;99.90
70820;DHT22;58439;51.046;13.692;2022-10-15T06:37:05;13.20;99.90
70820;DHT22;58439;51.046;13.692;2022-10-15T06:46:47;13.30;99.90
70820;DHT22;58439;51.046;13.692;2022-10-15T06:49:28;13.40;99.90
70820;DHT22;58439;51.046;13.692;2022-10-15T06:53:09;13.50;99.90
70820;DHT22;58439;51.046;13.692;2022-10-15T06:56:10;13.50;99.90
70820;DHT22;58439;51.046;13.692;2022-10-15T07:00:32;13.60;99.90
70820;DHT22;58439;51.046;13.692;2022-10-15T07:05:21;13.60;99.90
70820;DHT22;58439;51.046;13.692;2022-10-15T07:14:25;13.70;99.90
70820;DHT22;58439;51.046;13.692;2022-10-15T07:20:51;13.90;99.40
70820;DHT22;58439;51.046;13.692;2022-10-15T07:27:41;14.00;99.00
70820;DHT22;58439;51.046;13.692;2022-10-15T07:31:04;14.00;99.10
70820;DHT22;58439;51.046;13.692;2022-10-15T07:33:36;14.10;99.00
70820;DHT22;58439;51.046;13.692;2022-10-15T07:36:09;14.20;98.70
70820;DHT22;58439;51.046;13.692;2022-10-15T07:38:53;14.30;98.60
70820;DHT22;58439;51.046;13.692;2022-10-15T07:41:21;14.40;98.60
70820;DHT22;58439;51.046;13.692;2022-10-15T07:44:04;14.50;98.50
70820;DHT22;58439;51.046;13.692;2022-10-15T07:46:38;14.70;97.70
70820;DHT22;58439;51.046;13.692;2022-10-15T07:49:27;14.80;96.80
70820;DHT22;58439;51.046;13.692;2022-10-15T07:52:03;14.90;96.60
70820;DHT22;58439;51.046;13.692;2022-10-15T07:55:22;15.00;96.40
70820;DHT22;58439;51.046;13.692;2022-10-15T08:06:39;15.30;95.00
70820;DHT22;58439;51.046;13.692;2022-10-15T08:09:32;15.30;95.00
70820;DHT22;58439;51.046;13.692;2022-10-15T08:16:37;15.30;94.50
70820;DHT22;58439;51.046;13.692;2022-10-15T08:19:11;15.40;94.40
70820;DHT22;58439;51.046;13.692;2022-10-15T08:22:16;15.40;94.60
70820;DHT22;58439;51.046;13.692;2022-10-15T08:28:51;15.60;94.70
70820;DHT22;58439;51.046;13.692;2022-10-15T08:31:18;15.70;94.00
70820;DHT22;58439;51.046;13.692;2022-10-15T08:33:46;15.70;93.80
70820;DHT22;58439;51.046;13.692;2022-10-15T08:36:16;15.80;94.30
70820;DHT22;58439;51.046;13.692;2022-10-15T08:38:47;15.80;94.20
70820;DHT22;58439;51.046;13.692;2022-10-15T08:41:41;15.80;94.10
70820;DHT22;58439;51.046;13.692;2022-10-15T08:44:31;15.90;94.20
70820;DHT22;58439;51.046;13.692;2022-10-15T08:47:09;15.90;94.00
70820;DHT22;58439;51.046;13.692;2022-10-15T08:49:53;15.90;94.30
70820;DHT22;58439;51.046;13.692;2022-10-15T08:55:19;15.80;94.30
70820;DHT22;58439;51.046;13.692;2022-10-15T08:58:03;15.90;94.70
70820;DHT22;58439;51.046;13.692;2022-10-15T09:00:43;15.80;94.60
70820;DHT22;58439;51.046;13.692;2022-10-15T09:03:43;15.80;94.70
70820;DHT22;58439;51.046;13.692;2022-10-15T09:06:33;15.80;94.70
70820;DHT22;58439;51.046;13.692;2022-10-15T09:15:20;15.70;95.30
70820;DHT22;58439;51.046;13.692;2022-10-15T09:17:54;15.80;95.30
70820;DHT22;58439;51.046;13.692;2022-10-15T09:20:31;15.90;95.00
70820;DHT22;58439;51.046;13.692;2022-10-15T09:23:02;16.10;94.60
70820;DHT22;58439;51.046;13.692;2022-10-15T09:25:40;16.20;94.40
70820;DHT22;58439;51.046;13.692;2022-10-15T09:28:16;16.30;93.90
70820;DHT22;58439;51.046;13.692;2022-10-15T09:30:52;16.40;93.70
70820;DHT22;58439;51.046;13.692;2022-10-15T09:33:42;16.40;93.60
70820;DHT22;58439;51.046;13.692;2022-10-15T09:42:56;16.60;93.20
70820;DHT22;58439;51.046;13.692;2022-10-15T09:45:26;16.70;92.80
70820;DHT22;58439;51.046;13.692;2022-10-15T09:47:59;16.80;92.50
70820;DHT22;58439;51.046;13.692;2022-10-15T09:58:58;17.50;90.90
70820;DHT22;58439;51.046;13.692;2022-10-15T10:01:59;17.60;90.70
70820;DHT22;58439;51.046;13.692;2022-10-15T10:05:26;17.60;90.20
70820;DHT22;58439;51.046;13.692;2022-10-15T10:23:21;17.50;89.60
70820;DHT22;58439;51.046;13.692;2022-10-15T10:27:50;17.40;89.70
70820;DHT22;58439;51.046;13.692;2022-10-15T10:32:18;17.20;90.40
70820;DHT22;58439;51.046;13.692;2022-10-15T10:36:00;17.30;90.70
70820;DHT22;58439;51.046;13.692;2022-10-15T10:40:33;17.50;90.50
70820;DHT22;58439;51.046;13.692;2022-10-15T10:43:33;17.90;89.40
70820;DHT22;58439;51.046;13.692;2022-10-15T10:57:42;17.90;88.30
70820;DHT22;58439;51.046;13.692;2022-10-15T11:01:03;18.00;88.20
70820;DHT22;58439;51.046;13.692;2022-10-15T11:03:41;18.10;87.70
70820;DHT22;58439;51.046;13.692;2022-10-15T11:10:06;18.20;87.40
70820;DHT22;58439;51.046;13.692;2022-10-15T11:13:23;18.40;86.70
70820;DHT22;58439;51.046;13.692;2022-10-15T11:30:04;18.20;85.00
70820;DHT22;58439;51.046;13.692;2022-10-15T11:36:34;18.50;85.90
70820;DHT22;58439;51.046;13.692;2022-10-15T11:42:40;19.30;81.80
70820;DHT22;58439;51.046;13.692;2022-10-15T11:45:43;19.60;80.10
70820;DHT22;58439;51.046;13.692;2022-10-15T11:48:56;19.80;79.20
70820;DHT22;58439;51.046;13.692;2022-10-15T11:52:12;20.00;78.60
70820;DHT22;58439;51.046;13.692;2022-10-15T11:57:44;20.50;75.80
70820;DHT22;58439;51.046;13.692;2022-10-15T12:00:31;20.70;74.70
70820;DHT22;58439;51.046;13.692;2022-10-15T12:03:15;20.90;72.80
70820;DHT22;58439;51.046;13.692;2022-10-15T12:05:53;21.40;71.60
70820;DHT22;58439;51.046;13.692;2022-10-15T12:08:33;21.60;70.10
70820;DHT22;58439;51.046;13.692;2022-10-15T12:11:43;21.50;69.60
70820;DHT22;58439;51.046;13.692;2022-10-15T12:14:51;21.40;69.50
70820;DHT22;58439;51.046;13.692;2022-10-15T12:20:57;21.00;70.00
70820;DHT22;58439;51.046;13.692;2022-10-15T12:23:39;20.60;71.00
70820;DHT22;58439;51.046;13.692;2022-10-15T12:26:37;20.20;72.00
70820;DHT22;58439;51.046;13.692;2022-10-15T12:29:19;20.10;73.10
70820;DHT22;58439;51.046;13.692;2022-10-15T12:31:56;20.00;73.50
70820;DHT22;58439;51.046;13.692;2022-10-15T12:34:39;19.90;73.80
70820;DHT22;58439;51.046;13.692;2022-10-15T12:37:18;19.80;74.20
70820;DHT22;58439;51.046;13.692;2022-10-15T12:42:53;19.70;74.60
70820;DHT22;58439;51.046;13.692;2022-10-15T12:45:35;19.70;74.80
70820;DHT22;58439;51.046;13.692;2022-10-15T12:48:28;19.60;75.00
70820;DHT22;58439;51.046;13.692;2022-10-15T12:53:44;19.50;75.30
70820;DHT22;58439;51.046;13.692;2022-10-15T12:58:54;19.50;76.90
70820;DHT22;58439;51.046;13.692;2022-10-15T13:03:52;20.10;75.90
70820;DHT22;58439;51.046;13.692;2022-10-15T13:14:33;23.20;63.30
70820;DHT22;58439;51.046;13.692;2022-10-15T13:17:15;24.50;61.30
70820;DHT22;58439;51.046;13.692;2022-10-15T13:20:37;26.00;55.60
70820;DHT22;58439;51.046;13.692;2022-10-15T13:26:21;27.00;47.80
70820;DHT22;58439;51.046;13.692;2022-10-15T13:28:56;27.60;43.70
70820;DHT22;58439;51.046;13.692;2022-10-15T13:31:29;28.00;40.90
70820;DHT22;58439;51.046;13.692;2022-10-15T13:34:10;28.20;40.40
70820;DHT22;58439;51.046;13.692;2022-10-15T13:36:47;28.40;40.10
70820;DHT22;58439;51.046;13.692;2022-10-15T13:39:33;28.40;39.50
70820;DHT22;58439;51.046;13.692;2022-10-15T13:42:17;28.00;38.70
70820;DHT22;58439;51.046;13.692;2022-10-15T13:45:15;26.80;39.30
70820;DHT22;58439;51.046;13.692;2022-10-15T13:47:49;26.60;40.80
70820;DHT22;58439;51.046;13.692;2022-10-15T13:50:25;27.10;40.60
70820;DHT22;58439;51.046;13.692;2022-10-15T13:55:37;27.70;38.30
70820;DHT22;58439;51.046;13.692;2022-10-15T13:58:34;27.40;38.00
70820;DHT22;58439;51.046;13.692;2022-10-15T14:06:32;27.80;38.50
70820;DHT22;58439;51.046;13.692;2022-10-15T14:09:13;28.50;37.20
70820;DHT22;58439;51.046;13.692;2022-10-15T14:12:10;28.80;35.80
70820;DHT22;58439;51.046;13.692;2022-10-15T14:14:45;28.30;36.30
70820;DHT22;58439;51.046;13.692;2022-10-15T14:17:22;27.80;36.80
70820;DHT22;58439;51.046;13.692;2022-10-15T14:19:58;26.80;38.10
70820;DHT22;58439;51.046;13.692;2022-10-15T14:22:48;25.70;40.40
70820;DHT22;58439;51.046;13.692;2022-10-15T14:25:21;24.30;43.40
70820;DHT22;58439;51.046;13.692;2022-10-15T14:27:53;23.50;47.30
70820;DHT22;58439;51.046;13.692;2022-10-15T14:30:32;23.20;50.10
70820;DHT22;58439;51.046;13.692;2022-10-15T14:33:03;23.60;52.10
70820;DHT22;58439;51.046;13.692;2022-10-15T14:35:35;24.40;49.50
70820;DHT22;58439;51.046;13.692;2022-10-15T14:40:35;24.60;46.50
70820;DHT22;58439;51.046;13.692;2022-10-15T14:48:23;22.60;53.30
70820;DHT22;58439;51.046;13.692;2022-10-15T14:50:56;22.20;55.50
70820;DHT22;58439;51.046;13.692;2022-10-15T14:53:31;21.90;57.70
70820;DHT22;58439;51.046;13.692;2022-10-15T14:56:31;21.60;59.10
70820;DHT22;58439;51.046;13.692;2022-10-15T14:59:29;21.30;60.40
70820;DHT22;58439;51.046;13.692;2022-10-15T15:02:26;21.10;61.20
70820;DHT22;58439;51.046;13.692;2022-10-15T15:05:18;21.00;62.10
70820;DHT22;58439;51.046;13.692;2022-10-15T15:07:57;21.00;62.70
70820;DHT22;58439;51.046;13.692;2022-10-15T15:10:28;20.90;62.80
70820;DHT22;58439;51.046;13.692;2022-10-15T15:12:56;20.80;63.80
70820;DHT22;58439;51.046;13.692;2022-10-15T15:15:24;20.70;63.80
70820;DHT22;58439;51.046;13.692;2022-10-15T15:17:54;20.70;64.10
70820;DHT22;58439;51.046;13.692;2022-10-15T15:20:22;20.60;64.50
70820;DHT22;58439;51.046;13.692;2022-10-15T15:22:54;20.50;64.80
70820;DHT22;58439;51.046;13.692;2022-10-15T15:25:29;20.40;65.70
70820;DHT22;58439;51.046;13.692;2022-10-15T15:28:01;20.40;66.20
70820;DHT22;58439;51.046;13.692;2022-10-15T15:30:31;20.30;66.10
70820;DHT22;58439;51.046;13.692;2022-10-15T15:33:00;20.20;66.50
70820;DHT22;58439;51.046;13.692;2022-10-15T15:35:38;20.10;67.00
70820;DHT22;58439;51.046;13.692;2022-10-15T15:38:10;20.00;67.80
70820;DHT22;58439;51.046;13.692;2022-10-15T15:40:38;19.80;68.10
70820;DHT22;58439;51.046;13.692;2022-10-15T15:43:14;19.70;68.80
70820;DHT22;58439;51.046;13.692;2022-10-15T15:45:43;19.60;69.20
70820;DHT22;58439;51.046;13.692;2022-10-15T15:48:12;19.50;70.20
70820;DHT22;58439;51.046;13.692;2022-10-15T15:50:40;19.40;70.00
70820;DHT22;58439;51.046;13.692;2022-10-15T15:53:08;19.30;70.60
70820;DHT22;58439;51.046;13.692;2022-10-15T15:55:37;19.20;70.80
70820;DHT22;58439;51.046;13.692;2022-10-15T15:58:04;19.10;71.80
70820;DHT22;58439;51.046;13.692;2022-10-15T16:00:32;19.00;72.50
70820;DHT22;58439;51.046;13.692;2022-10-15T16:03:01;18.90;72.70
70820;DHT22;58439;51.046;13.692;2022-10-15T16:05:53;18.70;74.20
70820;DHT22;58439;51.046;13.692;2022-10-15T16:08:20;18.50;74.80
70820;DHT22;58439;51.046;13.692;2022-10-15T16:10:48;18.40;75.10
70820;DHT22;58439;51.046;13.692;2022-10-15T16:13:15;18.30;75.50
70820;DHT22;58439;51.046;13.692;2022-10-15T16:15:44;18.30;76.10
70820;DHT22;58439;51.046;13.692;2022-10-15T16:18:11;18.20;76.20
70820;DHT22;58439;51.046;13.692;2022-10-15T16:20:39;18.10;76.40
70820;DHT22;58439;51.046;13.692;2022-10-15T16:23:13;18.00;76.80
70820;DHT22;58439;51.046;13.692;2022-10-15T16:25:40;17.90;76.80
70820;DHT22;58439;51.046;13.692;2022-10-15T16:28:08;17.80;77.10
70820;DHT22;58439;51.046;13.692;2022-10-15T16:30:35;17.60;77.50
70820;DHT22;58439;51.046;13.692;2022-10-15T16:33:02;17.50;78.00
70820;DHT22;58439;51.046;13.692;2022-10-15T16:35:29;17.40;78.60
70820;DHT22;58439;51.046;13.692;2022-10-15T16:37:57;17.30;79.00
70820;DHT22;58439;51.046;13.692;2022-10-15T16:40:24;17.20;79.90
70820;DHT22;58439;51.046;13.692;2022-10-15T16:42:51;17.10;80.60
70820;DHT22;58439;51.046;13.692;2022-10-15T16:45:18;17.00;80.70
70820;DHT22;58439;51.046;13.692;2022-10-15T16:47:45;16.90;81.00
70820;DHT22;58439;51.046;13.692;2022-10-15T16:50:12;16.90;82.90
70820;DHT22;58439;51.046;13.692;2022-10-15T16:52:39;16.90;82.10
70820;DHT22;58439;51.046;13.692;2022-10-15T16:55:07;16.80;82.60
70820;DHT22;58439;51.046;13.692;2022-10-15T16:57:34;16.80;83.10
70820;DHT22;58439;51.046;13.692;2022-10-15T17:00:02;16.80;84.50
70820;DHT22;58439;51.046;13.692;2022-10-15T17:02:30;16.80;84.00
70820;DHT22;58439;51.046;13.692;2022-10-15T17:04:57;16.70;84.30
70820;DHT22;58439;51.046;13.692;2022-10-15T17:07:24;16.70;83.90
70820;DHT22;58439;51.046;13.692;2022-10-15T17:09:52;16.60;83.90
70820;DHT22;58439;51.046;13.692;2022-10-15T17:12:25;16.50;84.20
70820;DHT22;58439;51.046;13.692;2022-10-15T17:14:53;16.50;84.20
70820;DHT22;58439;51.046;13.692;2022-10-15T17:17:29;16.40;84.90
70820;DHT22;58439;51.046;13.692;2022-10-15T17:19:56;16.30;85.30
70820;DHT22;58439;51.046;13.692;2022-10-15T17:22:35;16.20;85.60
70820;DHT22;58439;51.046;13.692;2022-10-15T17:25:04;16.20;85.90
70820;DHT22;58439;51.046;13.692;2022-10-15T17:27:32;16.10;86.40
70820;DHT22;58439;51.046;13.692;2022-10-15T17:30:03;16.00;86.80
70820;DHT22;58439;51.046;13.692;2022-10-15T17:33:04;16.00;87.90
70820;DHT22;58439;51.046;13.692;2022-10-15T17:36:22;15.90;88.60
70820;DHT22;58439;51.046;13.692;2022-10-15T17:38:55;15.90;90.10
70820;DHT22;58439;51.046;13.692;2022-10-15T17:41:32;15.90;90.00
70820;DHT22;58439;51.046;13.692;2022-10-15T17:45:36;15.80;90.70
70820;DHT22;58439;51.046;13.692;2022-10-15T17:48:08;15.80;90.60
70820;DHT22;58439;51.046;13.692;2022-10-15T17:50:44;15.70;90.40
70820;DHT22;58439;51.046;13.692;2022-10-15T17:56:27;15.60;90.40
70820;DHT22;58439;51.046;13.692;2022-10-15T17:59:00;15.50;90.60
70820;DHT22;58439;51.046;13.692;2022-10-15T18:01:38;15.50;91.50
70820;DHT22;58439;51.046;13.692;2022-10-15T18:04:31;15.50;92.10
70820;DHT22;58439;51.046;13.692;2022-10-15T18:06:58;15.50;92.10
70820;DHT22;58439;51.046;13.692;2022-10-15T18:09:26;15.50;92.10
70820;DHT22;58439;51.046;13.692;2022-10-15T18:11:58;15.50;92.10
70820;DHT22;58439;51.046;13.692;2022-10-15T18:14:54;15.50;91.70
70820;DHT22;58439;51.046;13.692;2022-10-15T18:17:23;15.40;91.60
70820;DHT22;58439;51.046;13.692;2022-10-15T18:20:32;15.30;91.80
70820;DHT22;58439;51.046;13.692;2022-10-15T18:23:47;15.20;92.60
70820;DHT22;58439;51.046;13.692;2022-10-15T18:26:50;15.20;93.00
70820;DHT22;58439;51.046;13.692;2022-10-15T18:29:26;15.20;92.80
70820;DHT22;58439;51.046;13.692;2022-10-15T18:50:28;14.80;94.00
70820;DHT22;58439;51.046;13.692;2022-10-15T18:53:06;14.80;94.10
70820;DHT22;58439;51.046;13.692;2022-10-15T18:55:57;14.80;94.20
70820;DHT22;58439;51.046;13.692;2022-10-15T18:58:24;14.70;94.30
70820;DHT22;58439;51.046;13.692;2022-10-15T19:05:11;14.60;94.40
70820;DHT22;58439;51.046;13.692;2022-10-15T19:07:38;14.60;94.40
70820;DHT22;58439;51.046;13.692;2022-10-15T19:10:12;14.60;94.60
70820;DHT22;58439;51.046;13.692;2022-10-15T19:12:45;14.50;94.40
70820;DHT22;58439;51.046;13.692;2022-10-15T19:15:12;14.50;94.50
70820;DHT22;58439;51.046;13.692;2022-10-15T19:18:38;14.50;94.60
70820;DHT22;58439;51.046;13.692;2022-10-15T19:27:15;14.30;94.70
70820;DHT22;58439;51.046;13.692;2022-10-15T19:47:43;14.00;95.80
70820;DHT22;58439;51.046;13.692;2022-10-15T19:50:50;14.00;95.90
70820;DHT22;58439;51.046;13.692;2022-10-15T19:57:47;13.90;96.70
70820;DHT22;58439;51.046;13.692;2022-10-15T20:01:19;13.90;96.90
70820;DHT22;58439;51.046;13.692;2022-10-15T20:08:04;14.00;97.10
70820;DHT22;58439;51.046;13.692;2022-10-15T20:16:19;14.00;96.90
70820;DHT22;58439;51.046;13.692;2022-10-15T20:33:10;13.80;96.90
70820;DHT22;58439;51.046;13.692;2022-10-15T20:36:30;13.90;97.40
70820;DHT22;58439;51.046;13.692;2022-10-15T20:47:49;14.00;96.90
70820;DHT22;58439;51.046;13.692;2022-10-15T20:50:32;14.00;96.80
70820;DHT22;58439;51.046;13.692;2022-10-15T20:53:01;14.00;96.90
70820;DHT22;58439;51.046;13.692;2022-10-15T20:55:29;14.00;96.90
70820;DHT22;58439;51.046;13.692;2022-10-15T20:57:56;14.00;96.90
70820;DHT22;58439;51.046;13.692;2022-10-15T21:00:24;14.00;97.00
70820;DHT22;58439;51.046;13.692;2022-10-15T21:02:51;14.00;97.00
70820;DHT22;58439;51.046;13.692;2022-10-15T21:05:18;14.00;97.00
70820;DHT22;58439;51.046;13.692;2022-10-15T21:07:45;14.00;97.10
70820;DHT22;58439;51.046;13.692;2022-10-15T21:10:13;14.00;97.20
70820;DHT22;58439;51.046;13.692;2022-10-15T21:12:49;14.00;97.30
70820;DHT22;58439;51.046;13.692;2022-10-15T21:15:31;14.10;97.30
70820;DHT22;58439;51.046;13.692;2022-10-15T21:17:58;14.10;97.20
70820;DHT22;58439;51.046;13.692;2022-10-15T21:20:26;14.10;97.30
70820;DHT22;58439;51.046;13.692;2022-10-15T21:22:53;14.10;97.30
70820;DHT22;58439;51.046;13.692;2022-10-15T21:25:20;14.10;97.30
70820;DHT22;58439;51.046;13.692;2022-10-15T21:27:47;14.20;97.00
70820;DHT22;58439;51.046;13.692;2022-10-15T21:30:15;14.20;97.00
70820;DHT22;58439;51.046;13.692;2022-10-15T21:32:42;14.20;97.50
70820;DHT22;58439;51.046;13.692;2022-10-15T21:35:09;14.30;97.50
70820;DHT22;58439;51.046;13.692;2022-10-15T21:37:37;14.30;97.50
70820;DHT22;58439;51.046;13.692;2022-10-15T21:40:05;14.30;97.30
70820;DHT22;58439;51.046;13.692;2022-10-15T21:42:33;14.30;97.10
70820;DHT22;58439;51.046;13.692;2022-10-15T21:45:01;14.30;97.30
70820;DHT22;58439;51.046;13.692;2022-10-15T21:47:28;14.30;97.50
70820;DHT22;58439;51.046;13.692;2022-10-15T21:49:57;14.30;97.50
70820;DHT22;58439;51.046;13.692;2022-10-15T21:52:24;14.30;97.60
70820;DHT22;58439;51.046;13.692;2022-10-15T21:54:51;14.30;97.60
70820;DHT22;58439;51.046;13.692;2022-10-15T21:57:23;14.30;97.30
70820;DHT22;58439;51.046;13.692;2022-10-15T21:59:54;14.30;97.30
70820;DHT22;58439;51.046;13.692;2022-10-15T22:15:32;14.30;97.90
70820;DHT22;58439;51.046;13.692;2022-10-15T22:18:30;14.30;98.00
70820;DHT22;58439;51.046;13.692;2022-10-15T22:21:53;14.30;98.20
70820;DHT22;58439;51.046;13.692;2022-10-15T22:24:20;14.30;98.20
70820;DHT22;58439;51.046;13.692;2022-10-15T22:26:50;14.40;98.20
70820;DHT22;58439;51.046;13.692;2022-10-15T22:29:28;14.40;98.20
70820;DHT22;58439;51.046;13.692;2022-10-15T22:32:00;14.40;98.10
70820;DHT22;58439;51.046;13.692;2022-10-15T22:35:13;14.40;98.00
70820;DHT22;58439;51.046;13.692;2022-10-15T22:38:12;14.30;98.20
70820;DHT22;58439;51.046;13.692;2022-10-15T22:40:39;14.30;98.20
70820;DHT22;58439;51.046;13.692;2022-10-15T22:43:06;14.20;98.20
70820;DHT22;58439;51.046;13.692;2022-10-15T22:45:33;14.20;98.40
70820;DHT22;58439;51.046;13.692;2022-10-15T22:48:00;14.20;98.40
70820;DHT22;58439;51.046;13.692;2022-10-15T22:50:28;14.20;98.60
70820;DHT22;58439;51.046;13.692;2022-10-15T23:13:10;14.00;98.80
70820;DHT22;58439;51.046;13.692;2022-10-15T23:15:37;13.90;99.10
70820;DHT22;58439;51.046;13.692;2022-10-15T23:18:04;13.90;99.40
70820;DHT22;58439;51.046;13.692;2022-10-15T23:20:34;14.00;99.40
70820;DHT22;58439;51.046;13.692;2022-10-15T23:23:04;13.90;99.20
70820;DHT22;58439;51.046;13.692;2022-10-15T23:25:37;14.00;99.40
70820;DHT22;58439;51.046;13.692;2022-10-15T23:28:05;14.00;99.70
70820;DHT22;58439;51.046;13.692;2022-10-15T23:30:57;14.00;99.90
